sensor_id;sensor_type;location;lat;lon;timestamp;pressure;altitude;pressure_sealevel;temperature;humidity
74778;BME280;63298;53.164;8.610;2023-02-28T00:00:48;103299.75;;;5.32;63.55
74778;BME280;63298;53.164;8.610;2023-02-28T00:03:14;103291.38;;;5.24;63.58
74778;BME280;63298;53.164;8.610;2023-02-28T00:05:39;103301.00;;;5.18;63.63
74778;BME280;63298;53.164;8.610;2023-02-28T00:08:04;103315.97;;;5.14;64.02
74778;BME280;63298;53.164;8.610;2023-02-28T00:10:31;103296.94;;;5.03;63.25
74778;BME280;63298;53.164;8.610;2023-02-28T00:13:01;103305.75;;;5.07;63.51
74778;BME280;63298;53.164;8.610;2023-02-28T00:15:27;103304.31;;;5.12;64.03
74778;BME280;63298;53.164;8.610;2023-02-28T00:17:53;103305.19;;;5.13;63.86
74778;BME280;63298;53.164;8.610;2023-02-28T00:20:18;103308.50;;;5.16;63.87
74778;BME280;63298;53.164;8.610;2023-02-28T00:22:47;103313.56;;;5.21;64.37
74778;BME280;63298;53.164;8.610;2023-02-28T00:25:15;103306.03;;;5.23;63.41
74778;BME280;63298;53.164;8.610;2023-02-28T00:27:41;103302.91;;;5.18;63.92
74778;BME280;63298;53.164;8.610;2023-02-28T00:30:10;103306.03;;;5.23;63.49
74778;BME280;63298;53.164;8.610;2023-02-28T00:32:36;103304.59;;;5.19;64.02
74778;BME280;63298;53.164;8.610;2023-02-28T00:35:02;103300.88;;;5.20;63.85
74778;BME280;63298;53.164;8.610;2023-02-28T00:37:27;103309.94;;;5.20;63.96
74778;BME280;63298;53.164;8.610;2023-02-28T00:39:55;103310.53;;;5.24;63.53
74778;BME280;63298;53.164;8.610;2023-02-28T00:42:20;103299.88;;;5.21;63.92
74778;BME280;63298;53.164;8.610;2023-02-28T00:44:46;103298.00;;;5.21;64.13
74778;BME280;63298;53.164;8.610;2023-02-28T00:47:11;103291.50;;;5.13;64.07
74778;BME280;63298;53.164;8.610;2023-02-28T00:49:37;103313.56;;;5.21;64.48
74778;BME280;63298;53.164;8.610;2023-02-28T00:52:02;103281.38;;;5.04;64.46
74778;BME280;63298;53.164;8.610;2023-02-28T00:54:28;103292.50;;;5.12;64.48
74778;BME280;63298;53.164;8.610;2023-02-28T00:56:53;103308.06;;;5.21;64.23
74778;BME280;63298;53.164;8.610;2023-02-28T00:59:19;103296.69;;;5.16;64.28
74778;BME280;63298;53.164;8.610;2023-02-28T01:01:45;103297.25;;;5.10;64.64
74778;BME280;63298;53.164;8.610;2023-02-28T01:04:11;103307.34;;;5.19;64.26
74778;BME280;63298;53.164;8.610;2023-02-28T01:06:37;103309.22;;;5.18;64.27
74778;BME280;63298;53.164;8.610;2023-02-28T01:09:04;103286.88;;;5.04;64.79
74778;BME280;63298;53.164;8.610;2023-02-28T01:11:31;103302.91;;;5.18;64.77
74778;BME280;63298;53.164;8.610;2023-02-28T01:13:56;103312.38;;;5.23;64.48
74778;BME280;63298;53.164;8.610;2023-02-28T01:16:22;103293.38;;;5.12;65.08
74778;BME280;63298;53.164;8.610;2023-02-28T01:18:48;103317.72;;;5.25;65.01
74778;BME280;63298;53.164;8.610;2023-02-28T01:21:16;103312.09;;;5.17;64.45
74778;BME280;63298;53.164;8.610;2023-02-28T01:23:42;103315.84;;;5.16;64.46
74778;BME280;63298;53.164;8.610;2023-02-28T01:26:13;103324.50;;;5.21;64.98
74778;BME280;63298;53.164;8.610;2023-02-28T01:28:39;103300.84;;;5.10;64.35
74778;BME280;63298;53.164;8.610;2023-02-28T01:31:05;103309.63;;;5.14;65.11
74778;BME280;63298;53.164;8.610;2023-02-28T01:33:31;103303.16;;;5.15;64.93
74778;BME280;63298;53.164;8.610;2023-02-28T01:36:01;103308.75;;;5.13;65.36
74778;BME280;63298;53.164;8.610;2023-02-28T01:38:27;103318.72;;;5.24;64.95
74778;BME280;63298;53.164;8.610;2023-02-28T01:40:56;103316.41;;;5.19;64.63
74778;BME280;63298;53.164;8.610;2023-02-28T01:43:24;103316.28;;;5.21;65.45
74778;BME280;63298;53.164;8.610;2023-02-28T01:45:51;103306.47;;;5.18;64.83
74778;BME280;63298;53.164;8.610;2023-02-28T01:48:19;103295.06;;;5.04;64.44
74778;BME280;63298;53.164;8.610;2023-02-28T01:50:46;103313.09;;;5.16;65.05
74778;BME280;63298;53.164;8.610;2023-02-28T01:53:16;103324.78;;;5.18;65.18
74778;BME280;63298;53.164;8.610;2023-02-28T01:55:46;103297.38;;;5.08;64.91
74778;BME280;63298;53.164;8.610;2023-02-28T01:58:12;103292.06;;;5.07;64.58
74778;BME280;63298;53.164;8.610;2023-02-28T02:00:38;103288.34;;;5.08;65.16
74778;BME280;63298;53.164;8.610;2023-02-28T02:03:11;103314.09;;;5.15;64.98
74778;BME280;63298;53.164;8.610;2023-02-28T02:05:39;103296.69;;;5.06;65.57
74778;BME280;63298;53.164;8.610;2023-02-28T02:08:12;103291.34;;;5.05;65.36
74778;BME280;63298;53.164;8.610;2023-02-28T02:10:47;103309.50;;;5.15;65.13
74778;BME280;63298;53.164;8.610;2023-02-28T02:34:27;103303.00;;;5.07;65.62
74778;BME280;63298;53.164;8.610;2023-02-28T02:37:12;103289.88;;;5.01;65.14
74778;BME280;63298;53.164;8.610;2023-02-28T02:42:14;103304.00;;;4.96;65.66
74778;BME280;63298;53.164;8.610;2023-02-28T02:44:51;103299.38;;;4.97;65.28
74778;BME280;63298;53.164;8.610;2023-02-28T02:47:24;103302.13;;;4.97;65.31
74778;BME280;63298;53.164;8.610;2023-02-28T02:49:51;103298.81;;;4.93;66.26
74778;BME280;63298;53.164;8.610;2023-02-28T02:52:23;103302.81;;;4.89;65.99
74778;BME280;63298;53.164;8.610;2023-02-28T02:54:54;103304.41;;;4.92;65.33
74778;BME280;63298;53.164;8.610;2023-02-28T02:57:34;103288.56;;;4.86;66.06
74778;BME280;63298;53.164;8.610;2023-02-28T03:00:03;103291.72;;;4.91;65.84
74778;BME280;63298;53.164;8.610;2023-02-28T03:02:30;103298.94;;;4.92;65.95
74778;BME280;63298;53.164;8.610;2023-02-28T03:05:00;103298.50;;;4.87;66.03
74778;BME280;63298;53.164;8.610;2023-02-28T03:07:26;103286.69;;;4.86;66.23
74778;BME280;63298;53.164;8.610;2023-02-28T03:09:53;103286.97;;;4.83;65.98
74778;BME280;63298;53.164;8.610;2023-02-28T03:12:20;103296.34;;;4.90;66.19
74778;BME280;63298;53.164;8.610;2023-02-28T03:14:56;103291.84;;;4.89;65.66
74778;BME280;63298;53.164;8.610;2023-02-28T03:20:35;103295.19;;;4.83;65.79
74778;BME280;63298;53.164;8.610;2023-02-28T03:23:19;103294.56;;;4.79;66.21
74778;BME280;63298;53.164;8.610;2023-02-28T03:26:17;103294.72;;;4.78;66.47
74778;BME280;63298;53.164;8.610;2023-02-28T03:29:17;103300.19;;;4.78;66.86
74778;BME280;63298;53.164;8.610;2023-02-28T03:31:53;103301.31;;;4.75;65.94
74778;BME280;63298;53.164;8.610;2023-02-28T03:34:29;103302.47;;;4.73;66.10
74778;BME280;63298;53.164;8.610;2023-02-28T03:37:03;103293.41;;;4.72;66.03
74778;BME280;63298;53.164;8.610;2023-02-28T03:39:37;103305.06;;;4.74;66.48
74778;BME280;63298;53.164;8.610;2023-02-28T03:42:17;103305.47;;;4.70;66.58
74778;BME280;63298;53.164;8.610;2023-02-28T03:44:48;103303.59;;;4.70;66.25
74778;BME280;63298;53.164;8.610;2023-02-28T03:47:29;103317.28;;;4.70;66.17
74778;BME280;63298;53.164;8.610;2023-02-28T03:50:05;103312.81;;;4.69;66.61
74778;BME280;63298;53.164;8.610;2023-02-28T03:52:36;103305.03;;;4.65;66.54
74778;BME280;63298;53.164;8.610;2023-02-28T03:55:07;103309.91;;;4.61;66.41
74778;BME280;63298;53.164;8.610;2023-02-28T03:57:51;103311.09;;;4.68;66.46
74778;BME280;63298;53.164;8.610;2023-02-28T04:00:30;103305.63;;;4.68;66.58
74778;BME280;63298;53.164;8.610;2023-02-28T04:02:56;103311.94;;;4.69;66.52
74778;BME280;63298;53.164;8.610;2023-02-28T04:05:23;103312.09;;;4.67;66.38
74778;BME280;63298;53.164;8.610;2023-02-28T04:07:50;103315.94;;;4.65;66.67
74778;BME280;63298;53.164;8.610;2023-02-28T04:10:16;103308.03;;;4.62;66.42
74778;BME280;63298;53.164;8.610;2023-02-28T04:12:42;103313.97;;;4.67;66.80
74778;BME280;63298;53.164;8.610;2023-02-28T04:15:08;103322.28;;;4.65;66.38
74778;BME280;63298;53.164;8.610;2023-02-28T04:17:34;103303.53;;;4.51;66.57
74778;BME280;63298;53.164;8.610;2023-02-28T04:19:59;103315.78;;;4.57;66.69
74778;BME280;63298;53.164;8.610;2023-02-28T04:22:25;103310.72;;;4.52;66.53
74778;BME280;63298;53.164;8.610;2023-02-28T04:24:53;103328.59;;;4.56;66.83
74778;BME280;63298;53.164;8.610;2023-02-28T04:27:19;103304.81;;;4.47;66.60
74778;BME280;63298;53.164;8.610;2023-02-28T04:29:44;103307.66;;;4.46;66.74
74778;BME280;63298;53.164;8.610;2023-02-28T04:32:10;103325.38;;;4.51;66.34
74778;BME280;63298;53.164;8.610;2023-02-28T04:34:35;103306.09;;;4.43;66.82
74778;BME280;63298;53.164;8.610;2023-02-28T04:37:01;103320.06;;;4.50;66.48
74778;BME280;63298;53.164;8.610;2023-02-28T04:39:26;103305.63;;;4.38;67.08
74778;BME280;63298;53.164;8.610;2023-02-28T04:41:52;103325.22;;;4.43;66.92
74778;BME280;63298;53.164;8.610;2023-02-28T04:44:17;103312.38;;;4.34;67.00
74778;BME280;63298;53.164;8.610;2023-02-28T04:46:43;103313.22;;;4.34;66.30
74778;BME280;63298;53.164;8.610;2023-02-28T04:49:12;103321.28;;;4.36;66.28
74778;BME280;63298;53.164;8.610;2023-02-28T04:51:38;103305.41;;;4.30;66.83
74778;BME280;63298;53.164;8.610;2023-02-28T04:54:03;103326.22;;;4.42;66.69
74778;BME280;63298;53.164;8.610;2023-02-28T04:56:28;103316.56;;;4.38;66.54
74778;BME280;63298;53.164;8.610;2023-02-28T04:58:54;103326.47;;;4.39;66.61
74778;BME280;63298;53.164;8.610;2023-02-28T05:01:23;103325.16;;;4.33;65.84
74778;BME280;63298;53.164;8.610;2023-02-28T05:03:49;103328.47;;;4.37;66.47
74778;BME280;63298;53.164;8.610;2023-02-28T05:06:16;103333.94;;;4.37;66.50
74778;BME280;63298;53.164;8.610;2023-02-28T05:08:42;103322.97;;;4.27;66.72
74778;BME280;63298;53.164;8.610;2023-02-28T05:11:22;103317.91;;;4.23;66.85
74778;BME280;63298;53.164;8.610;2023-02-28T05:13:48;103339.94;;;4.31;66.05
74778;BME280;63298;53.164;8.610;2023-02-28T05:16:14;103332.03;;;4.28;66.51
74778;BME280;63298;53.164;8.610;2023-02-28T05:18:40;103327.22;;;4.20;66.39
74778;BME280;63298;53.164;8.610;2023-02-28T05:21:06;103327.50;;;4.17;66.57
74778;BME280;63298;53.164;8.610;2023-02-28T05:23:42;103304.31;;;4.12;66.61
74778;BME280;63298;53.164;8.610;2023-02-28T05:26:08;103333.31;;;4.24;66.44
74778;BME280;63298;53.164;8.610;2023-02-28T05:28:33;103323.03;;;4.16;66.31
74778;BME280;63298;53.164;8.610;2023-02-28T05:30:58;103339.28;;;4.18;66.43
74778;BME280;63298;53.164;8.610;2023-02-28T05:33:24;103324.84;;;4.06;66.21
74778;BME280;63298;53.164;8.610;2023-02-28T05:35:49;103335.97;;;4.14;66.61
74778;BME280;63298;53.164;8.610;2023-02-28T05:41:36;103314.44;;;4.00;66.42
74778;BME280;63298;53.164;8.610;2023-02-28T05:44:02;103306.53;;;3.97;66.20
74778;BME280;63298;53.164;8.610;2023-02-28T05:46:27;103343.31;;;4.14;66.81
74778;BME280;63298;53.164;8.610;2023-02-28T05:48:52;103334.63;;;4.09;66.66
74778;BME280;63298;53.164;8.610;2023-02-28T05:51:18;103346.16;;;4.12;66.17
74778;BME280;63298;53.164;8.610;2023-02-28T05:53:43;103332.31;;;4.04;66.56
74778;BME280;63298;53.164;8.610;2023-02-28T05:56:09;103339.34;;;4.07;66.27
74778;BME280;63298;53.164;8.610;2023-02-28T05:58:34;103345.09;;;4.04;66.67
74778;BME280;63298;53.164;8.610;2023-02-28T06:01:11;103343.94;;;4.06;66.41
74778;BME280;63298;53.164;8.610;2023-02-28T06:03:43;103323.50;;;4.01;66.41
74778;BME280;63298;53.164;8.610;2023-02-28T06:06:09;103328.84;;;4.02;66.59
74778;BME280;63298;53.164;8.610;2023-02-28T06:08:34;103343.47;;;4.01;66.25
74778;BME280;63298;53.164;8.610;2023-02-28T06:11:03;103337.72;;;3.95;66.66
74778;BME280;63298;53.164;8.610;2023-02-28T06:13:28;103338.00;;;3.80;66.86
74778;BME280;63298;53.164;8.610;2023-02-28T06:15:54;103345.13;;;3.72;66.70
74778;BME280;63298;53.164;8.610;2023-02-28T06:18:19;103361.25;;;3.75;66.75
74778;BME280;63298;53.164;8.610;2023-02-28T06:20:44;103357.56;;;3.65;66.72
74778;BME280;63298;53.164;8.610;2023-02-28T06:23:10;103350.59;;;3.61;66.74
74778;BME280;63298;53.164;8.610;2023-02-28T06:25:35;103350.22;;;3.65;66.62
74778;BME280;63298;53.164;8.610;2023-02-28T06:28:00;103368.09;;;3.69;66.81
74778;BME280;63298;53.164;8.610;2023-02-28T06:30:26;103375.66;;;3.66;66.70
74778;BME280;63298;53.164;8.610;2023-02-28T06:32:51;103373.06;;;3.64;67.04
74778;BME280;63298;53.164;8.610;2023-02-28T06:35:16;103368.13;;;3.58;66.81
74778;BME280;63298;53.164;8.610;2023-02-28T06:37:42;103368.41;;;3.55;66.88
74778;BME280;63298;53.164;8.610;2023-02-28T06:40:08;103367.66;;;3.53;66.63
74778;BME280;63298;53.164;8.610;2023-02-28T06:42:33;103360.56;;;3.51;66.92
74778;BME280;63298;53.164;8.610;2023-02-28T06:44:59;103374.97;;;3.53;66.73
74778;BME280;63298;53.164;8.610;2023-02-28T06:47:25;103385.75;;;3.54;66.69
74778;BME280;63298;53.164;8.610;2023-02-28T06:49:50;103376.69;;;3.54;67.24
74778;BME280;63298;53.164;8.610;2023-02-28T06:52:16;103380.91;;;3.58;67.05
74778;BME280;63298;53.164;8.610;2023-02-28T06:54:41;103371.88;;;3.46;67.15
74778;BME280;63298;53.164;8.610;2023-02-28T06:57:09;103373.88;;;3.44;66.83
74778;BME280;63298;53.164;8.610;2023-02-28T06:59:35;103368.16;;;3.36;66.82
74778;BME280;63298;53.164;8.610;2023-02-28T07:02:00;103394.81;;;3.55;66.81
74778;BME280;63298;53.164;8.610;2023-02-28T07:04:26;103394.19;;;3.51;67.39
74778;BME280;63298;53.164;8.610;2023-02-28T07:06:52;103390.84;;;3.47;66.79
74778;BME280;63298;53.164;8.610;2023-02-28T07:09:17;103403.38;;;3.50;67.23
74778;BME280;63298;53.164;8.610;2023-02-28T07:11:42;103399.78;;;3.50;67.07
74778;BME280;63298;53.164;8.610;2023-02-28T07:14:08;103397.19;;;3.48;67.34
74778;BME280;63298;53.164;8.610;2023-02-28T07:16:33;103400.66;;;3.50;67.29
74778;BME280;63298;53.164;8.610;2023-02-28T07:18:58;103408.56;;;3.53;66.97
74778;BME280;63298;53.164;8.610;2023-02-28T07:21:24;103414.78;;;3.55;66.96
74778;BME280;63298;53.164;8.610;2023-02-28T07:23:50;103417.50;;;3.55;67.24
74778;BME280;63298;53.164;8.610;2023-02-28T07:26:17;103409.31;;;3.55;66.96
74778;BME280;63298;53.164;8.610;2023-02-28T07:28:43;103412.78;;;3.57;66.91
74778;BME280;63298;53.164;8.610;2023-02-28T07:31:10;103411.53;;;3.61;66.64
74778;BME280;63298;53.164;8.610;2023-02-28T07:33:35;103406.06;;;3.61;66.63
74778;BME280;63298;53.164;8.610;2023-02-28T07:36:06;103417.72;;;3.63;66.70
74778;BME280;63298;53.164;8.610;2023-02-28T07:38:36;103413.25;;;3.62;66.56
74778;BME280;63298;53.164;8.610;2023-02-28T07:41:04;103426.78;;;3.64;66.62
74778;BME280;63298;53.164;8.610;2023-02-28T07:43:30;103416.75;;;3.64;66.43
74778;BME280;63298;53.164;8.610;2023-02-28T07:45:55;103419.19;;;3.67;66.63
74778;BME280;63298;53.164;8.610;2023-02-28T07:48:21;103413.84;;;3.66;66.77
74778;BME280;63298;53.164;8.610;2023-02-28T07:50:54;103416.34;;;3.69;66.36
74778;BME280;63298;53.164;8.610;2023-02-28T07:53:20;103415.84;;;3.75;66.76
74778;BME280;63298;53.164;8.610;2023-02-28T07:55:45;103412.47;;;3.71;66.49
74778;BME280;63298;53.164;8.610;2023-02-28T07:58:10;103418.41;;;3.76;66.01
74778;BME280;63298;53.164;8.610;2023-02-28T08:00:35;103414.59;;;3.79;66.26
74778;BME280;63298;53.164;8.610;2023-02-28T08:03:01;103415.94;;;3.84;66.25
74778;BME280;63298;53.164;8.610;2023-02-28T08:05:26;103420.25;;;3.87;65.95
74778;BME280;63298;53.164;8.610;2023-02-28T08:07:51;103412.53;;;3.92;66.12
74778;BME280;63298;53.164;8.610;2023-02-28T08:10:17;103416.00;;;3.94;65.99
74778;BME280;63298;53.164;8.610;2023-02-28T08:12:42;103415.63;;;3.99;66.11
74778;BME280;63298;53.164;8.610;2023-02-28T08:15:08;103424.53;;;4.01;66.19
74778;BME280;63298;53.164;8.610;2023-02-28T08:17:33;103416.22;;;4.02;66.09
74778;BME280;63298;53.164;8.610;2023-02-28T08:19:58;103418.56;;;4.07;65.82
74778;BME280;63298;53.164;8.610;2023-02-28T08:22:24;103429.84;;;4.13;65.85
74778;BME280;63298;53.164;8.610;2023-02-28T08:24:49;103429.09;;;4.11;66.01
74778;BME280;63298;53.164;8.610;2023-02-28T08:27:14;103417.75;;;4.16;66.19
74778;BME280;63298;53.164;8.610;2023-02-28T08:29:40;103425.16;;;4.25;65.69
74778;BME280;63298;53.164;8.610;2023-02-28T08:32:06;103420.91;;;4.32;65.75
74778;BME280;63298;53.164;8.610;2023-02-28T08:34:32;103429.31;;;4.40;65.87
74778;BME280;63298;53.164;8.610;2023-02-28T08:36:57;103416.50;;;4.41;65.24
74778;BME280;63298;53.164;8.610;2023-02-28T08:39:23;103421.44;;;4.47;65.80
74778;BME280;63298;53.164;8.610;2023-02-28T08:41:48;103426.44;;;4.62;65.54
74778;BME280;63298;53.164;8.610;2023-02-28T08:44:14;103431.38;;;4.68;65.01
74778;BME280;63298;53.164;8.610;2023-02-28T08:46:39;103427.84;;;4.77;64.88
74778;BME280;63298;53.164;8.610;2023-02-28T08:49:04;103422.53;;;4.86;64.55
74778;BME280;63298;53.164;8.610;2023-02-28T08:51:29;103432.41;;;4.98;65.08
74778;BME280;63298;53.164;8.610;2023-02-28T08:53:58;103428.38;;;5.02;64.97
74778;BME280;63298;53.164;8.610;2023-02-28T08:56:23;103425.38;;;5.05;64.92
74778;BME280;63298;53.164;8.610;2023-02-28T08:58:49;103422.66;;;5.14;64.28
74778;BME280;63298;53.164;8.610;2023-02-28T09:01:17;103413.03;;;5.20;64.52
74778;BME280;63298;53.164;8.610;2023-02-28T09:03:43;103425.88;;;5.29;64.09
74778;BME280;63298;53.164;8.610;2023-02-28T09:06:10;103425.22;;;5.37;64.27
74778;BME280;63298;53.164;8.610;2023-02-28T09:08:36;103423.19;;;5.39;64.35
74778;BME280;63298;53.164;8.610;2023-02-28T09:11:02;103414.41;;;5.45;63.68
74778;BME280;63298;53.164;8.610;2023-02-28T09:13:28;103422.53;;;5.56;63.54
74778;BME280;63298;53.164;8.610;2023-02-28T09:15:56;103426.16;;;5.66;63.68
74778;BME280;63298;53.164;8.610;2023-02-28T09:18:23;103425.00;;;5.69;62.11
74778;BME280;63298;53.164;8.610;2023-02-28T09:20:52;103425.72;;;5.71;62.72
74778;BME280;63298;53.164;8.610;2023-02-28T09:23:18;103415.91;;;5.68;62.80
74778;BME280;63298;53.164;8.610;2023-02-28T09:25:48;103407.25;;;5.73;62.56
74778;BME280;63298;53.164;8.610;2023-02-28T09:28:14;103413.78;;;5.81;62.96
74778;BME280;63298;53.164;8.610;2023-02-28T09:30:39;103420.28;;;5.90;62.71
74778;BME280;63298;53.164;8.610;2023-02-28T09:33:05;103421.16;;;6.00;62.44
74778;BME280;63298;53.164;8.610;2023-02-28T09:35:30;103409.03;;;6.02;62.61
74778;BME280;63298;53.164;8.610;2023-02-28T09:37:56;103409.03;;;6.12;62.29
74778;BME280;63298;53.164;8.610;2023-02-28T09:40:24;103394.06;;;6.06;61.57
74778;BME280;63298;53.164;8.610;2023-02-28T09:42:52;103421.16;;;6.29;61.77
74778;BME280;63298;53.164;8.610;2023-02-28T09:45:33;103428.25;;;6.31;58.09
74778;BME280;63298;53.164;8.610;2023-02-28T09:48:04;103414.38;;;6.33;61.74
74778;BME280;63298;53.164;8.610;2023-02-28T09:50:46;103420.16;;;6.39;60.14
74778;BME280;63298;53.164;8.610;2023-02-28T09:53:24;103421.13;;;6.48;60.97
74778;BME280;63298;53.164;8.610;2023-02-28T09:56:20;103421.84;;;6.60;60.69
74778;BME280;63298;53.164;8.610;2023-02-28T09:58:57;103416.63;;;6.66;60.00
74778;BME280;63298;53.164;8.610;2023-02-28T10:06:48;103423.97;;;6.75;58.78
74778;BME280;63298;53.164;8.610;2023-02-28T10:09:18;103424.13;;;6.74;56.88
74778;BME280;63298;53.164;8.610;2023-02-28T10:11:45;103428.16;;;6.79;59.29
74778;BME280;63298;53.164;8.610;2023-02-28T10:14:15;103435.78;;;6.85;59.67
74778;BME280;63298;53.164;8.610;2023-02-28T10:17:02;103439.38;;;6.96;59.67
74778;BME280;63298;53.164;8.610;2023-02-28T10:19:35;103437.75;;;7.03;59.26
74778;BME280;63298;53.164;8.610;2023-02-28T10:22:20;103434.53;;;7.07;55.96
74778;BME280;63298;53.164;8.610;2023-02-28T10:24:50;103431.94;;;7.06;58.93
74778;BME280;63298;53.164;8.610;2023-02-28T10:27:24;103430.06;;;7.06;58.18
74778;BME280;63298;53.164;8.610;2023-02-28T10:29:58;103441.59;;;7.19;58.33
74778;BME280;63298;53.164;8.610;2023-02-28T10:34:55;103439.44;;;7.13;56.40
74778;BME280;63298;53.164;8.610;2023-02-28T10:37:22;103429.88;;;7.17;57.57
74778;BME280;63298;53.164;8.610;2023-02-28T10:39:47;103421.06;;;7.23;58.03
74778;BME280;63298;53.164;8.610;2023-02-28T10:42:25;103428.38;;;7.32;55.81
74778;BME280;63298;53.164;8.610;2023-02-28T10:45:15;103426.03;;;7.37;56.23
74778;BME280;63298;53.164;8.610;2023-02-28T10:47:56;103423.09;;;7.49;55.19
74778;BME280;63298;53.164;8.610;2023-02-28T10:50:35;103425.91;;;7.57;57.42
74778;BME280;63298;53.164;8.610;2023-02-28T10:53:14;103419.41;;;7.58;57.07
74778;BME280;63298;53.164;8.610;2023-02-28T10:55:41;103415.47;;;7.60;56.78
74778;BME280;63298;53.164;8.610;2023-02-28T10:58:23;103414.88;;;7.66;54.84
74778;BME280;63298;53.164;8.610;2023-02-28T11:00:49;103419.81;;;7.63;57.02
74778;BME280;63298;53.164;8.610;2023-02-28T11:03:34;103411.59;;;7.63;55.05
74778;BME280;63298;53.164;8.610;2023-02-28T11:06:11;103420.91;;;7.70;55.38
74778;BME280;63298;53.164;8.610;2023-02-28T11:08:50;103418.50;;;7.67;55.82
74778;BME280;63298;53.164;8.610;2023-02-28T11:11:17;103407.41;;;7.59;54.96
74778;BME280;63298;53.164;8.610;2023-02-28T11:13:44;103405.28;;;7.53;54.65
74778;BME280;63298;53.164;8.610;2023-02-28T11:16:12;103410.78;;;7.53;55.38
74778;BME280;63298;53.164;8.610;2023-02-28T11:21:15;103413.41;;;7.72;55.81
74778;BME280;63298;53.164;8.610;2023-02-28T11:23:41;103411.78;;;7.79;55.15
74778;BME280;63298;53.164;8.610;2023-02-28T11:26:07;103405.81;;;7.84;56.09
74778;BME280;63298;53.164;8.610;2023-02-28T11:28:35;103398.63;;;7.91;54.75
74778;BME280;63298;53.164;8.610;2023-02-28T11:33:48;103405.41;;;7.96;53.05
74778;BME280;63298;53.164;8.610;2023-02-28T11:36:29;103408.22;;;8.04;54.45
74778;BME280;63298;53.164;8.610;2023-02-28T11:39:03;103389.63;;;7.98;52.50
74778;BME280;63298;53.164;8.610;2023-02-28T11:42:03;103395.13;;;7.98;53.57
74778;BME280;63298;53.164;8.610;2023-02-28T11:44:51;103399.53;;;8.09;51.77
74778;BME280;63298;53.164;8.610;2023-02-28T11:50:42;103398.78;;;8.24;52.87
74778;BME280;63298;53.164;8.610;2023-02-28T12:01:55;103385.19;;;8.41;49.63
74778;BME280;63298;53.164;8.610;2023-02-28T12:23:58;103347.06;;;9.05;53.01
74778;BME280;63298;53.164;8.610;2023-02-28T12:26:36;103340.84;;;9.03;49.96
74778;BME280;63298;53.164;8.610;2023-02-28T12:29:23;103340.53;;;9.06;50.69
74778;BME280;63298;53.164;8.610;2023-02-28T12:32:16;103335.03;;;9.06;49.99
74778;BME280;63298;53.164;8.610;2023-02-28T12:34:47;103338.28;;;9.02;51.50
74778;BME280;63298;53.164;8.610;2023-02-28T12:37:19;103337.44;;;9.01;49.50
74778;BME280;63298;53.164;8.610;2023-02-28T12:39:50;103325.19;;;8.96;49.43
74778;BME280;63298;53.164;8.610;2023-02-28T12:42:24;103323.97;;;8.98;50.41
74778;BME280;63298;53.164;8.610;2023-02-28T12:44:59;103314.19;;;9.04;45.33
74778;BME280;63298;53.164;8.610;2023-02-28T12:47:25;103319.19;;;9.00;48.80
74778;BME280;63298;53.164;8.610;2023-02-28T12:49:58;103318.47;;;8.98;47.94
74778;BME280;63298;53.164;8.610;2023-02-28T12:53:07;103314.00;;;8.97;50.14
74778;BME280;63298;53.164;8.610;2023-02-28T12:58:34;103311.31;;;9.14;51.10
74778;BME280;63298;53.164;8.610;2023-02-28T13:04:07;103305.47;;;9.17;49.37
74778;BME280;63298;53.164;8.610;2023-02-28T13:06:45;103307.38;;;9.16;50.75
74778;BME280;63298;53.164;8.610;2023-02-28T13:09:18;103296.16;;;9.18;50.08
74778;BME280;63298;53.164;8.610;2023-02-28T13:11:46;103307.53;;;9.23;49.23
74778;BME280;63298;53.164;8.610;2023-02-28T13:14:36;103278.63;;;9.19;47.61
74778;BME280;63298;53.164;8.610;2023-02-28T13:19:39;103284.84;;;9.29;48.81
74778;BME280;63298;53.164;8.610;2023-02-28T13:22:20;103293.81;;;9.39;48.16
74778;BME280;63298;53.164;8.610;2023-02-28T13:25:01;103288.31;;;9.39;48.58
74778;BME280;63298;53.164;8.610;2023-02-28T13:27:38;103270.25;;;9.36;46.50
74778;BME280;63298;53.164;8.610;2023-02-28T13:35:45;103283.34;;;9.50;48.94
74778;BME280;63298;53.164;8.610;2023-02-28T13:38:22;103283.19;;;9.52;48.48
74778;BME280;63298;53.164;8.610;2023-02-28T13:40:48;103279.38;;;9.53;48.58
74778;BME280;63298;53.164;8.610;2023-02-28T13:43:16;103271.97;;;9.45;48.22
74778;BME280;63298;53.164;8.610;2023-02-28T13:46:06;103283.00;;;9.53;48.54
74778;BME280;63298;53.164;8.610;2023-02-28T13:48:33;103275.59;;;9.62;49.13
74778;BME280;63298;53.164;8.610;2023-02-28T13:50:58;103278.34;;;9.62;46.87
74778;BME280;63298;53.164;8.610;2023-02-28T13:54:00;103279.03;;;9.64;47.32
74778;BME280;63298;53.164;8.610;2023-02-28T13:56:35;103258.38;;;9.52;47.54
74778;BME280;63298;53.164;8.610;2023-02-28T13:59:25;103274.56;;;9.63;48.89
74778;BME280;63298;53.164;8.610;2023-02-28T14:04:54;103255.63;;;9.76;48.21
74778;BME280;63298;53.164;8.610;2023-02-28T14:07:28;103250.09;;;9.84;47.85
74778;BME280;63298;53.164;8.610;2023-02-28T14:10:03;103249.78;;;9.79;46.46
74778;BME280;63298;53.164;8.610;2023-02-28T14:12:52;103253.56;;;9.78;46.80
74778;BME280;63298;53.164;8.610;2023-02-28T14:17:59;103246.31;;;9.77;48.07
74778;BME280;63298;53.164;8.610;2023-02-28T14:20:29;103230.47;;;9.79;48.59
74778;BME280;63298;53.164;8.610;2023-02-28T14:26:18;103241.84;;;9.84;47.57
74778;BME280;63298;53.164;8.610;2023-02-28T14:31:37;103245.47;;;9.69;47.57
74778;BME280;63298;53.164;8.610;2023-02-28T14:37:18;103255.28;;;9.71;48.48
74778;BME280;63298;53.164;8.610;2023-02-28T14:39:44;103264.25;;;9.81;48.57
74778;BME280;63298;53.164;8.610;2023-02-28T14:42:32;103259.56;;;9.82;46.25
74778;BME280;63298;53.164;8.610;2023-02-28T14:44:58;103258.75;;;9.81;47.58
74778;BME280;63298;53.164;8.610;2023-02-28T14:47:33;103258.03;;;9.79;47.27
74778;BME280;63298;53.164;8.610;2023-02-28T14:50:02;103266.47;;;9.78;47.24
74778;BME280;63298;53.164;8.610;2023-02-28T14:52:30;103255.28;;;9.63;47.52
74778;BME280;63298;53.164;8.610;2023-02-28T14:54:59;103257.50;;;9.68;48.11
74778;BME280;63298;53.164;8.610;2023-02-28T14:57:34;103264.41;;;9.80;47.52